sensor_id;sensor_type;location;lat;lon;timestamp;P1;durP1;ratioP1;P2;durP2;ratioP2
72939;SDS011;61094;51.154;13.570;2022-08-21T03:54:42;50.58;;;20.58;;
72939;SDS011;61094;51.154;13.570;2022-08-21T03:57:09;40.03;;;16.08;;
72939;SDS011;61094;51.154;13.570;2022-08-21T03:59:36;31.38;;;13.23;;
72939;SDS011;61094;51.154;13.570;2022-08-21T04:02:05;28.58;;;13.30;;
72939;SDS011;61094;51.154;13.570;2022-08-21T04:04:32;27.52;;;12.35;;
72939;SDS011;61094;51.154;13.570;2022-08-21T04:07:00;29.27;;;12.80;;
72939;SDS011;61094;51.154;13.570;2022-08-21T04:09:27;27.33;;;12.80;;
72939;SDS011;61094;51.154;13.570;2022-08-21T04:11:56;33.58;;;14.18;;
72939;SDS011;61094;51.154;13.570;2022-08-21T04:14:24;31.80;;;14.10;;
72939;SDS011;61094;51.154;13.570;2022-08-21T04:16:51;31.63;;;13.52;;
72939;SDS011;61094;51.154;13.570;2022-08-21T04:19:18;31.75;;;15.05;;
72939;SDS011;61094;51.154;13.570;2022-08-21T04:21:44;37.00;;;15.68;;
72939;SDS011;61094;51.154;13.570;2022-08-21T04:24:11;30.05;;;14.88;;
72939;SDS011;61094;51.154;13.570;2022-08-21T04:26:38;31.38;;;13.88;;
72939;SDS011;61094;51.154;13.570;2022-08-21T04:29:06;28.40;;;13.40;;
72939;SDS011;61094;51.154;13.570;2022-08-21T04:31:33;30.73;;;12.80;;
72939;SDS011;61094;51.154;13.570;2022-08-21T04:34:01;34.42;;;15.27;;
72939;SDS011;61094;51.154;13.570;2022-08-21T04:36:28;30.25;;;13.80;;
72939;SDS011;61094;51.154;13.570;2022-08-21T04:38:55;32.63;;;14.23;;
72939;SDS011;61094;51.154;13.570;2022-08-21T04:41:22;36.70;;;16.80;;
72939;SDS011;61094;51.154;13.570;2022-08-21T04:43:49;39.88;;;17.88;;
72939;SDS011;61094;51.154;13.570;2022-08-21T04:46:17;37.20;;;17.33;;
72939;SDS011;61094;51.154;13.570;2022-08-21T04:48:44;41.97;;;17.02;;
72939;SDS011;61094;51.154;13.570;2022-08-21T04:51:11;36.13;;;17.08;;
72939;SDS011;61094;51.154;13.570;2022-08-21T04:53:43;37.20;;;16.83;;
72939;SDS011;61094;51.154;13.570;2022-08-21T04:56:14;39.58;;;16.98;;
72939;SDS011;61094;51.154;13.570;2022-08-21T04:58:45;39.47;;;18.00;;
72939;SDS011;61094;51.154;13.570;2022-08-21T05:01:15;38.63;;;17.00;;
72939;SDS011;61094;51.154;13.570;2022-08-21T05:03:46;37.30;;;17.35;;
72939;SDS011;61094;51.154;13.570;2022-08-21T05:06:14;35.63;;;17.35;;
72939;SDS011;61094;51.154;13.570;2022-08-21T05:08:42;38.58;;;16.98;;
72939;SDS011;61094;51.154;13.570;2022-08-21T05:11:13;36.30;;;16.58;;
72939;SDS011;61094;51.154;13.570;2022-08-21T05:13:39;33.92;;;17.90;;
72939;SDS011;61094;51.154;13.570;2022-08-21T05:16:06;36.83;;;16.35;;
72939;SDS011;61094;51.154;13.570;2022-08-21T05:18:34;34.15;;;16.15;;
72939;SDS011;61094;51.154;13.570;2022-08-21T05:21:01;31.08;;;16.73;;
72939;SDS011;61094;51.154;13.570;2022-08-21T05:23:29;34.00;;;15.80;;
72939;SDS011;61094;51.154;13.570;2022-08-21T05:25:55;30.27;;;13.88;;
72939;SDS011;61094;51.154;13.570;2022-08-21T05:28:23;27.88;;;14.75;;
72939;SDS011;61094;51.154;13.570;2022-08-21T05:30:51;27.83;;;14.23;;
72939;SDS011;61094;51.154;13.570;2022-08-21T05:33:18;24.92;;;14.27;;
72939;SDS011;61094;51.154;13.570;2022-08-21T05:35:48;28.40;;;16.10;;
72939;SDS011;61094;51.154;13.570;2022-08-21T05:38:16;27.60;;;14.63;;
72939;SDS011;61094;51.154;13.570;2022-08-21T05:40:42;23.10;;;13.35;;
72939;SDS011;61094;51.154;13.570;2022-08-21T05:43:09;20.70;;;12.32;;
72939;SDS011;61094;51.154;13.570;2022-08-21T05:45:35;22.58;;;11.68;;
72939;SDS011;61094;51.154;13.570;2022-08-21T05:48:05;26.48;;;14.77;;
72939;SDS011;61094;51.154;13.570;2022-08-21T05:50:33;33.05;;;17.67;;
72939;SDS011;61094;51.154;13.570;2022-08-21T05:53:04;23.55;;;13.45;;
72939;SDS011;61094;51.154;13.570;2022-08-21T05:55:31;25.52;;;13.77;;
72939;SDS011;61094;51.154;13.570;2022-08-21T05:57:58;21.02;;;11.75;;
72939;SDS011;61094;51.154;13.570;2022-08-21T06:00:24;19.13;;;10.73;;
72939;SDS011;61094;51.154;13.570;2022-08-21T06:02:51;21.45;;;11.25;;
72939;SDS011;61094;51.154;13.570;2022-08-21T06:05:18;19.85;;;11.15;;
72939;SDS011;61094;51.154;13.570;2022-08-21T06:07:44;17.73;;;10.60;;
72939;SDS011;61094;51.154;13.570;2022-08-21T06:10:12;21.40;;;12.38;;
72939;SDS011;61094;51.154;13.570;2022-08-21T06:12:39;34.90;;;20.67;;
72939;SDS011;61094;51.154;13.570;2022-08-21T06:15:07;21.08;;;11.20;;
72939;SDS011;61094;51.154;13.570;2022-08-21T06:17:34;20.58;;;11.38;;
72939;SDS011;61094;51.154;13.570;2022-08-21T06:20:01;20.60;;;11.75;;
72939;SDS011;61094;51.154;13.570;2022-08-21T06:22:29;16.92;;;10.15;;
72939;SDS011;61094;51.154;13.570;2022-08-21T06:24:56;21.48;;;11.23;;
72939;SDS011;61094;51.154;13.570;2022-08-21T06:27:24;20.90;;;10.45;;
72939;SDS011;61094;51.154;13.570;2022-08-21T06:29:50;23.80;;;10.82;;
72939;SDS011;61094;51.154;13.570;2022-08-21T06:32:17;19.80;;;10.95;;
72939;SDS011;61094;51.154;13.570;2022-08-21T06:34:44;20.42;;;11.20;;
72939;SDS011;61094;51.154;13.570;2022-08-21T06:37:10;18.67;;;10.38;;
72939;SDS011;61094;51.154;13.570;2022-08-21T06:39:37;16.55;;;9.98;;
72939;SDS011;61094;51.154;13.570;2022-08-21T06:42:04;21.85;;;10.60;;
72939;SDS011;61094;51.154;13.570;2022-08-21T06:44:32;18.38;;;10.40;;
72939;SDS011;61094;51.154;13.570;2022-08-21T06:46:59;18.10;;;9.93;;
72939;SDS011;61094;51.154;13.570;2022-08-21T06:49:26;16.80;;;8.88;;
72939;SDS011;61094;51.154;13.570;2022-08-21T06:51:52;20.65;;;9.57;;
72939;SDS011;61094;51.154;13.570;2022-08-21T06:54:19;22.52;;;11.52;;
72939;SDS011;61094;51.154;13.570;2022-08-21T06:56:45;17.55;;;9.77;;
72939;SDS011;61094;51.154;13.570;2022-08-21T06:59:12;17.48;;;9.82;;
72939;SDS011;61094;51.154;13.570;2022-08-21T07:01:40;16.85;;;9.45;;
72939;SDS011;61094;51.154;13.570;2022-08-21T07:04:07;16.20;;;9.57;;
72939;SDS011;61094;51.154;13.570;2022-08-21T07:06:34;16.05;;;8.70;;
72939;SDS011;61094;51.154;13.570;2022-08-21T07:09:00;17.13;;;9.57;;
72939;SDS011;61094;51.154;13.570;2022-08-21T07:11:28;16.00;;;9.25;;
72939;SDS011;61094;51.154;13.570;2022-08-21T07:13:55;18.88;;;9.80;;
72939;SDS011;61094;51.154;13.570;2022-08-21T07:16:21;15.30;;;9.27;;
72939;SDS011;61094;51.154;13.570;2022-08-21T07:18:50;17.17;;;9.20;;
72939;SDS011;61094;51.154;13.570;2022-08-21T07:21:17;15.30;;;8.20;;
72939;SDS011;61094;51.154;13.570;2022-08-21T07:23:45;13.82;;;8.05;;
72939;SDS011;61094;51.154;13.570;2022-08-21T07:26:17;15.73;;;9.13;;
72939;SDS011;61094;51.154;13.570;2022-08-21T07:28:46;18.52;;;7.90;;
72939;SDS011;61094;51.154;13.570;2022-08-21T07:31:14;14.55;;;8.15;;
72939;SDS011;61094;51.154;13.570;2022-08-21T07:33:42;12.88;;;7.43;;
72939;SDS011;61094;51.154;13.570;2022-08-21T07:36:11;14.65;;;8.40;;
72939;SDS011;61094;51.154;13.570;2022-08-21T07:38:38;13.13;;;6.50;;
72939;SDS011;61094;51.154;13.570;2022-08-21T07:41:06;13.00;;;7.40;;
72939;SDS011;61094;51.154;13.570;2022-08-21T07:43:38;15.57;;;7.72;;
72939;SDS011;61094;51.154;13.570;2022-08-21T07:46:05;12.25;;;7.57;;
72939;SDS011;61094;51.154;13.570;2022-08-21T07:48:32;15.32;;;7.38;;
72939;SDS011;61094;51.154;13.570;2022-08-21T07:50:59;14.25;;;7.25;;
72939;SDS011;61094;51.154;13.570;2022-08-21T07:53:31;14.93;;;8.13;;
72939;SDS011;61094;51.154;13.570;2022-08-21T07:55:58;12.63;;;7.35;;
72939;SDS011;61094;51.154;13.570;2022-08-21T07:58:25;13.13;;;7.03;;
72939;SDS011;61094;51.154;13.570;2022-08-21T08:00:51;15.20;;;8.02;;
72939;SDS011;61094;51.154;13.570;2022-08-21T08:03:18;16.63;;;7.80;;
72939;SDS011;61094;51.154;13.570;2022-08-21T08:05:45;17.23;;;9.25;;
72939;SDS011;61094;51.154;13.570;2022-08-21T08:08:11;13.70;;;7.25;;
72939;SDS011;61094;51.154;13.570;2022-08-21T08:10:39;13.32;;;6.75;;
72939;SDS011;61094;51.154;13.570;2022-08-21T08:13:06;12.80;;;7.22;;
72939;SDS011;61094;51.154;13.570;2022-08-21T08:15:33;13.77;;;7.90;;
72939;SDS011;61094;51.154;13.570;2022-08-21T08:18:01;16.05;;;7.68;;
72939;SDS011;61094;51.154;13.570;2022-08-21T08:20:28;13.13;;;6.93;;
72939;SDS011;61094;51.154;13.570;2022-08-21T08:22:55;13.38;;;7.32;;
72939;SDS011;61094;51.154;13.570;2022-08-21T08:25:22;13.70;;;7.43;;
72939;SDS011;61094;51.154;13.570;2022-08-21T08:27:51;13.93;;;7.47;;
72939;SDS011;61094;51.154;13.570;2022-08-21T08:30:18;12.57;;;6.65;;
72939;SDS011;61094;51.154;13.570;2022-08-21T08:32:47;12.23;;;6.57;;
72939;SDS011;61094;51.154;13.570;2022-08-21T08:35:14;13.73;;;6.03;;
72939;SDS011;61094;51.154;13.570;2022-08-21T08:37:42;16.50;;;7.18;;
72939;SDS011;61094;51.154;13.570;2022-08-21T08:40:11;13.95;;;6.78;;
72939;SDS011;61094;51.154;13.570;2022-08-21T08:42:40;12.75;;;6.50;;
72939;SDS011;61094;51.154;13.570;2022-08-21T08:45:09;15.93;;;6.38;;
72939;SDS011;61094;51.154;13.570;2022-08-21T08:47:40;11.88;;;6.03;;
72939;SDS011;61094;51.154;13.570;2022-08-21T08:50:12;9.57;;;5.60;;
72939;SDS011;61094;51.154;13.570;2022-08-21T08:52:45;15.48;;;8.52;;
72939;SDS011;61094;51.154;13.570;2022-08-21T08:55:16;27.13;;;14.77;;
72939;SDS011;61094;51.154;13.570;2022-08-21T08:57:46;9.73;;;4.95;;
72939;SDS011;61094;51.154;13.570;2022-08-21T09:00:17;13.35;;;5.70;;
72939;SDS011;61094;51.154;13.570;2022-08-21T09:02:46;9.68;;;4.63;;
72939;SDS011;61094;51.154;13.570;2022-08-21T09:05:17;12.15;;;4.35;;
72939;SDS011;61094;51.154;13.570;2022-08-21T09:07:50;7.45;;;3.70;;
72939;SDS011;61094;51.154;13.570;2022-08-21T09:10:29;10.75;;;4.15;;
72939;SDS011;61094;51.154;13.570;2022-08-21T09:13:03;10.75;;;4.00;;
72939;SDS011;61094;51.154;13.570;2022-08-21T09:15:40;10.88;;;4.38;;
72939;SDS011;61094;51.154;13.570;2022-08-21T09:18:21;8.93;;;4.00;;
72939;SDS011;61094;51.154;13.570;2022-08-21T09:21:00;11.80;;;4.43;;
72939;SDS011;61094;51.154;13.570;2022-08-21T09:23:36;10.55;;;4.85;;
72939;SDS011;61094;51.154;13.570;2022-08-21T09:26:13;21.25;;;4.55;;
72939;SDS011;61094;51.154;13.570;2022-08-21T09:28:42;7.70;;;3.47;;
72939;SDS011;61094;51.154;13.570;2022-08-21T09:31:15;8.07;;;3.42;;
72939;SDS011;61094;51.154;13.570;2022-08-21T09:33:47;17.77;;;7.05;;
72939;SDS011;61094;51.154;13.570;2022-08-21T09:36:21;9.70;;;3.83;;
72939;SDS011;61094;51.154;13.570;2022-08-21T09:38:51;8.10;;;3.22;;
72939;SDS011;61094;51.154;13.570;2022-08-21T09:41:27;8.40;;;2.88;;
72939;SDS011;61094;51.154;13.570;2022-08-21T09:43:56;6.95;;;2.72;;
72939;SDS011;61094;51.154;13.570;2022-08-21T09:46:24;6.43;;;2.47;;
72939;SDS011;61094;51.154;13.570;2022-08-21T09:48:53;7.53;;;2.45;;
72939;SDS011;61094;51.154;13.570;2022-08-21T09:51:22;8.73;;;2.90;;
72939;SDS011;61094;51.154;13.570;2022-08-21T09:53:51;5.72;;;2.58;;
72939;SDS011;61094;51.154;13.570;2022-08-21T09:56:24;8.50;;;2.95;;
72939;SDS011;61094;51.154;13.570;2022-08-21T09:59:24;6.35;;;3.05;;
72939;SDS011;61094;51.154;13.570;2022-08-21T10:01:53;7.40;;;2.60;;
72939;SDS011;61094;51.154;13.570;2022-08-21T10:04:22;8.45;;;2.65;;
72939;SDS011;61094;51.154;13.570;2022-08-21T10:06:53;10.05;;;2.47;;
72939;SDS011;61094;51.154;13.570;2022-08-21T10:09:20;12.27;;;4.75;;
72939;SDS011;61094;51.154;13.570;2022-08-21T10:11:49;10.23;;;4.50;;
72939;SDS011;61094;51.154;13.570;2022-08-21T10:14:30;11.15;;;2.70;;
72939;SDS011;61094;51.154;13.570;2022-08-21T10:17:11;11.55;;;2.53;;
72939;SDS011;61094;51.154;13.570;2022-08-21T10:19:43;10.75;;;2.80;;
72939;SDS011;61094;51.154;13.570;2022-08-21T10:22:19;9.65;;;3.25;;
72939;SDS011;61094;51.154;13.570;2022-08-21T10:24:56;6.72;;;2.08;;
72939;SDS011;61094;51.154;13.570;2022-08-21T10:27:36;9.18;;;2.33;;
72939;SDS011;61094;51.154;13.570;2022-08-21T10:30:11;6.68;;;2.00;;
72939;SDS011;61094;51.154;13.570;2022-08-21T10:32:46;6.97;;;1.98;;
72939;SDS011;61094;51.154;13.570;2022-08-21T10:35:24;7.32;;;1.70;;
72939;SDS011;61094;51.154;13.570;2022-08-21T10:37:59;5.07;;;1.70;;
72939;SDS011;61094;51.154;13.570;2022-08-21T10:40:53;6.50;;;1.85;;
72939;SDS011;61094;51.154;13.570;2022-08-21T10:43:27;5.00;;;1.70;;
72939;SDS011;61094;51.154;13.570;2022-08-21T10:46:05;5.38;;;1.90;;
72939;SDS011;61094;51.154;13.570;2022-08-21T10:48:42;11.05;;;2.47;;
72939;SDS011;61094;51.154;13.570;2022-08-21T10:51:17;5.70;;;1.73;;
72939;SDS011;61094;51.154;13.570;2022-08-21T10:53:55;4.90;;;1.77;;
72939;SDS011;61094;51.154;13.570;2022-08-21T10:56:31;6.18;;;1.83;;
72939;SDS011;61094;51.154;13.570;2022-08-21T10:59:07;5.80;;;1.90;;
72939;SDS011;61094;51.154;13.570;2022-08-21T11:01:52;10.07;;;1.73;;
72939;SDS011;61094;51.154;13.570;2022-08-21T11:04:30;6.90;;;1.45;;
72939;SDS011;61094;51.154;13.570;2022-08-21T11:07:02;6.78;;;1.75;;
72939;SDS011;61094;51.154;13.570;2022-08-21T11:09:32;5.22;;;1.40;;
72939;SDS011;61094;51.154;13.570;2022-08-21T11:12:00;5.25;;;1.30;;
72939;SDS011;61094;51.154;13.570;2022-08-21T11:14:34;5.05;;;1.40;;
72939;SDS011;61094;51.154;13.570;2022-08-21T11:17:13;6.25;;;1.30;;
72939;SDS011;61094;51.154;13.570;2022-08-21T11:19:56;9.23;;;1.70;;
72939;SDS011;61094;51.154;13.570;2022-08-21T11:22:31;5.00;;;1.48;;
72939;SDS011;61094;51.154;13.570;2022-08-21T11:25:06;6.32;;;1.35;;
72939;SDS011;61094;51.154;13.570;2022-08-21T11:27:38;7.63;;;1.50;;
72939;SDS011;61094;51.154;13.570;2022-08-21T11:30:09;4.97;;;1.52;;
72939;SDS011;61094;51.154;13.570;2022-08-21T11:32:42;4.75;;;1.17;;
72939;SDS011;61094;51.154;13.570;2022-08-21T11:35:28;5.45;;;1.38;;
72939;SDS011;61094;51.154;13.570;2022-08-21T11:38:03;8.27;;;1.63;;
72939;SDS011;61094;51.154;13.570;2022-08-21T11:40:46;4.45;;;1.50;;
72939;SDS011;61094;51.154;13.570;2022-08-21T11:43:21;8.35;;;1.70;;
72939;SDS011;61094;51.154;13.570;2022-08-21T11:45:56;6.55;;;1.42;;
72939;SDS011;61094;51.154;13.570;2022-08-21T11:48:34;4.13;;;1.35;;
72939;SDS011;61094;51.154;13.570;2022-08-21T11:51:09;5.65;;;1.10;;
72939;SDS011;61094;51.154;13.570;2022-08-21T11:53:40;7.30;;;1.73;;
72939;SDS011;61094;51.154;13.570;2022-08-21T11:56:17;6.57;;;1.77;;
72939;SDS011;61094;51.154;13.570;2022-08-21T11:58:47;6.40;;;1.40;;
72939;SDS011;61094;51.154;13.570;2022-08-21T12:01:17;6.45;;;1.65;;
72939;SDS011;61094;51.154;13.570;2022-08-21T12:03:51;7.13;;;1.60;;
72939;SDS011;61094;51.154;13.570;2022-08-21T12:06:29;7.10;;;1.83;;
72939;SDS011;61094;51.154;13.570;2022-08-21T12:08:58;8.13;;;2.20;;
72939;SDS011;61094;51.154;13.570;2022-08-21T12:11:27;6.45;;;1.48;;
72939;SDS011;61094;51.154;13.570;2022-08-21T12:13:55;6.30;;;1.77;;
72939;SDS011;61094;51.154;13.570;2022-08-21T12:16:30;6.00;;;1.40;;
72939;SDS011;61094;51.154;13.570;2022-08-21T12:19:02;4.18;;;1.52;;
72939;SDS011;61094;51.154;13.570;2022-08-21T12:21:32;6.55;;;1.60;;
72939;SDS011;61094;51.154;13.570;2022-08-21T12:24:02;5.68;;;1.83;;
72939;SDS011;61094;51.154;13.570;2022-08-21T12:26:48;6.32;;;1.50;;
72939;SDS011;61094;51.154;13.570;2022-08-21T12:29:21;6.07;;;1.95;;
72939;SDS011;61094;51.154;13.570;2022-08-21T12:31:51;5.65;;;1.50;;
72939;SDS011;61094;51.154;13.570;2022-08-21T12:34:20;7.38;;;1.88;;
72939;SDS011;61094;51.154;13.570;2022-08-21T12:36:53;7.15;;;1.65;;
72939;SDS011;61094;51.154;13.570;2022-08-21T12:39:23;4.22;;;1.52;;
72939;SDS011;61094;51.154;13.570;2022-08-21T12:41:55;4.75;;;1.50;;
72939;SDS011;61094;51.154;13.570;2022-08-21T12:44:26;6.25;;;1.70;;
72939;SDS011;61094;51.154;13.570;2022-08-21T12:47:00;9.52;;;1.50;;
72939;SDS011;61094;51.154;13.570;2022-08-21T12:49:30;3.80;;;1.40;;
72939;SDS011;61094;51.154;13.570;2022-08-21T12:52:03;4.43;;;1.02;;
72939;SDS011;61094;51.154;13.570;2022-08-21T12:54:37;4.82;;;1.33;;
72939;SDS011;61094;51.154;13.570;2022-08-21T12:57:07;8.82;;;1.60;;
72939;SDS011;61094;51.154;13.570;2022-08-21T12:59:37;8.02;;;1.60;;
72939;SDS011;61094;51.154;13.570;2022-08-21T13:02:08;5.13;;;1.30;;
72939;SDS011;61094;51.154;13.570;2022-08-21T13:04:42;5.70;;;1.23;;
72939;SDS011;61094;51.154;13.570;2022-08-21T13:07:11;6.10;;;1.30;;
72939;SDS011;61094;51.154;13.570;2022-08-21T13:09:42;5.75;;;1.42;;
72939;SDS011;61094;51.154;13.570;2022-08-21T13:12:13;5.63;;;1.52;;
72939;SDS011;61094;51.154;13.570;2022-08-21T13:14:43;3.75;;;1.17;;
72939;SDS011;61094;51.154;13.570;2022-08-21T13:17:12;7.38;;;1.40;;
72939;SDS011;61094;51.154;13.570;2022-08-21T13:19:40;6.10;;;1.40;;
72939;SDS011;61094;51.154;13.570;2022-08-21T13:22:13;5.80;;;1.40;;
72939;SDS011;61094;51.154;13.570;2022-08-21T13:24:40;9.27;;;2.55;;
72939;SDS011;61094;51.154;13.570;2022-08-21T13:27:21;6.65;;;1.38;;
72939;SDS011;61094;51.154;13.570;2022-08-21T13:30:00;7.35;;;1.88;;
72939;SDS011;61094;51.154;13.570;2022-08-21T13:32:33;4.85;;;1.30;;
72939;SDS011;61094;51.154;13.570;2022-08-21T13:35:10;6.95;;;1.55;;
72939;SDS011;61094;51.154;13.570;2022-08-21T13:37:41;7.35;;;1.23;;
72939;SDS011;61094;51.154;13.570;2022-08-21T13:40:10;9.98;;;1.50;;
72939;SDS011;61094;51.154;13.570;2022-08-21T13:42:40;3.88;;;1.48;;
72939;SDS011;61094;51.154;13.570;2022-08-21T13:47:40;6.78;;;1.20;;
72939;SDS011;61094;51.154;13.570;2022-08-21T13:50:08;3.50;;;1.02;;
72939;SDS011;61094;51.154;13.570;2022-08-21T13:52:46;5.55;;;1.40;;
72939;SDS011;61094;51.154;13.570;2022-08-21T13:55:16;5.43;;;1.20;;
72939;SDS011;61094;51.154;13.570;2022-08-21T13:57:44;4.05;;;1.13;;
72939;SDS011;61094;51.154;13.570;2022-08-21T14:00:12;5.78;;;1.50;;
72939;SDS011;61094;51.154;13.570;2022-08-21T14:02:42;5.03;;;1.15;;
72939;SDS011;61094;51.154;13.570;2022-08-21T14:05:14;4.90;;;1.60;;
72939;SDS011;61094;51.154;13.570;2022-08-21T14:07:42;6.47;;;2.00;;
72939;SDS011;61094;51.154;13.570;2022-08-21T14:10:13;3.97;;;1.40;;
72939;SDS011;61094;51.154;13.570;2022-08-21T14:12:43;7.25;;;1.30;;
72939;SDS011;61094;51.154;13.570;2022-08-21T14:15:13;7.40;;;1.27;;
72939;SDS011;61094;51.154;13.570;2022-08-21T14:17:41;3.53;;;1.30;;
72939;SDS011;61094;51.154;13.570;2022-08-21T14:20:09;6.55;;;2.25;;
72939;SDS011;61094;51.154;13.570;2022-08-21T14:22:39;7.25;;;1.63;;
72939;SDS011;61094;51.154;13.570;2022-08-21T14:25:10;5.35;;;1.40;;
72939;SDS011;61094;51.154;13.570;2022-08-21T14:27:42;7.30;;;1.60;;
72939;SDS011;61094;51.154;13.570;2022-08-21T14:30:21;4.05;;;1.35;;
72939;SDS011;61094;51.154;13.570;2022-08-21T14:32:54;4.50;;;1.25;;
72939;SDS011;61094;51.154;13.570;2022-08-21T14:35:21;12.73;;;5.38;;
72939;SDS011;61094;51.154;13.570;2022-08-21T14:37:48;5.70;;;1.35;;
72939;SDS011;61094;51.154;13.570;2022-08-21T14:40:16;4.60;;;1.17;;
72939;SDS011;61094;51.154;13.570;2022-08-21T14:42:44;7.72;;;1.45;;
72939;SDS011;61094;51.154;13.570;2022-08-21T14:45:13;4.45;;;1.10;;
72939;SDS011;61094;51.154;13.570;2022-08-21T14:47:41;3.10;;;1.10;;
72939;SDS011;61094;51.154;13.570;2022-08-21T14:50:09;3.60;;;1.08;;
72939;SDS011;61094;51.154;13.570;2022-08-21T14:52:36;5.80;;;1.63;;
72939;SDS011;61094;51.154;13.570;2022-08-21T14:55:04;3.20;;;1.15;;
72939;SDS011;61094;51.154;13.570;2022-08-21T14:57:32;4.82;;;1.25;;
72939;SDS011;61094;51.154;13.570;2022-08-21T15:00:01;3.72;;;1.10;;
72939;SDS011;61094;51.154;13.570;2022-08-21T15:02:29;5.88;;;1.23;;
72939;SDS011;61094;51.154;13.570;2022-08-21T15:04:56;7.65;;;1.45;;
72939;SDS011;61094;51.154;13.570;2022-08-21T15:07:23;4.20;;;1.20;;
72939;SDS011;61094;51.154;13.570;2022-08-21T15:09:49;3.45;;;1.13;;
72939;SDS011;61094;51.154;13.570;2022-08-21T15:12:16;5.13;;;1.05;;
72939;SDS011;61094;51.154;13.570;2022-08-21T15:14:43;4.88;;;1.20;;
72939;SDS011;61094;51.154;13.570;2022-08-21T15:17:11;5.05;;;1.40;;
72939;SDS011;61094;51.154;13.570;2022-08-21T15:19:38;5.82;;;1.40;;
72939;SDS011;61094;51.154;13.570;2022-08-21T15:22:05;4.13;;;1.30;;
72939;SDS011;61094;51.154;13.570;2022-08-21T15:24:32;4.65;;;1.30;;
72939;SDS011;61094;51.154;13.570;2022-08-21T15:26:59;5.82;;;1.60;;
72939;SDS011;61094;51.154;13.570;2022-08-21T15:29:28;5.95;;;1.40;;
72939;SDS011;61094;51.154;13.570;2022-08-21T15:31:55;6.60;;;1.50;;
72939;SDS011;61094;51.154;13.570;2022-08-21T15:34:25;5.72;;;1.90;;
72939;SDS011;61094;51.154;13.570;2022-08-21T15:36:54;4.65;;;1.65;;
72939;SDS011;61094;51.154;13.570;2022-08-21T15:39:21;6.25;;;1.40;;
72939;SDS011;61094;51.154;13.570;2022-08-21T15:41:48;5.00;;;1.67;;
72939;SDS011;61094;51.154;13.570;2022-08-21T15:44:15;6.97;;;1.35;;
72939;SDS011;61094;51.154;13.570;2022-08-21T15:46:42;6.53;;;1.65;;
72939;SDS011;61094;51.154;13.570;2022-08-21T15:49:10;6.72;;;2.05;;
72939;SDS011;61094;51.154;13.570;2022-08-21T15:51:38;6.88;;;1.83;;
72939;SDS011;61094;51.154;13.570;2022-08-21T15:54:05;4.47;;;1.05;;
72939;SDS011;61094;51.154;13.570;2022-08-21T15:56:33;4.53;;;1.55;;
72939;SDS011;61094;51.154;13.570;2022-08-21T15:59:02;4.72;;;1.50;;
72939;SDS011;61094;51.154;13.570;2022-08-21T16:01:31;4.30;;;1.20;;
72939;SDS011;61094;51.154;13.570;2022-08-21T16:03:58;4.63;;;1.58;;
72939;SDS011;61094;51.154;13.570;2022-08-21T16:06:25;8.50;;;1.70;;
72939;SDS011;61094;51.154;13.570;2022-08-21T16:08:53;4.72;;;1.50;;
72939;SDS011;61094;51.154;13.570;2022-08-21T16:11:20;6.13;;;1.33;;
72939;SDS011;61094;51.154;13.570;2022-08-21T16:13:47;4.20;;;1.15;;
72939;SDS011;61094;51.154;13.570;2022-08-21T16:16:16;4.95;;;1.52;;
72939;SDS011;61094;51.154;13.570;2022-08-21T16:18:46;7.32;;;1.38;;
72939;SDS011;61094;51.154;13.570;2022-08-21T16:21:13;4.68;;;1.38;;
72939;SDS011;61094;51.154;13.570;2022-08-21T16:23:41;4.57;;;1.30;;
72939;SDS011;61094;51.154;13.570;2022-08-21T16:26:10;4.22;;;1.17;;
72939;SDS011;61094;51.154;13.570;2022-08-21T16:28:39;5.82;;;1.83;;
72939;SDS011;61094;51.154;13.570;2022-08-21T16:31:08;5.10;;;1.58;;
72939;SDS011;61094;51.154;13.570;2022-08-21T16:33:36;6.18;;;1.10;;
72939;SDS011;61094;51.154;13.570;2022-08-21T16:36:08;4.28;;;1.23;;
72939;SDS011;61094;51.154;13.570;2022-08-21T16:38:37;4.80;;;1.13;;
72939;SDS011;61094;51.154;13.570;2022-08-21T16:41:06;5.65;;;1.45;;
72939;SDS011;61094;51.154;13.570;2022-08-21T16:43:35;7.28;;;1.73;;
72939;SDS011;61094;51.154;13.570;2022-08-21T16:46:04;4.65;;;1.40;;
72939;SDS011;61094;51.154;13.570;2022-08-21T16:48:31;4.40;;;1.48;;
72939;SDS011;61094;51.154;13.570;2022-08-21T16:51:00;6.18;;;1.63;;
72939;SDS011;61094;51.154;13.570;2022-08-21T16:53:27;6.55;;;1.58;;
72939;SDS011;61094;51.154;13.570;2022-08-21T16:55:54;4.43;;;1.40;;
72939;SDS011;61094;51.154;13.570;2022-08-21T16:58:22;8.15;;;1.65;;
72939;SDS011;61094;51.154;13.570;2022-08-21T17:00:53;3.38;;;1.17;;
72939;SDS011;61094;51.154;13.570;2022-08-21T17:03:20;7.35;;;2.25;;
72939;SDS011;61094;51.154;13.570;2022-08-21T17:05:54;6.35;;;1.50;;
72939;SDS011;61094;51.154;13.570;2022-08-21T17:08:21;5.53;;;1.55;;
72939;SDS011;61094;51.154;13.570;2022-08-21T17:10:50;4.55;;;1.70;;
72939;SDS011;61094;51.154;13.570;2022-08-21T17:13:17;4.38;;;1.20;;
72939;SDS011;61094;51.154;13.570;2022-08-21T17:15:44;7.85;;;1.23;;
72939;SDS011;61094;51.154;13.570;2022-08-21T17:18:17;7.18;;;1.45;;
72939;SDS011;61094;51.154;13.570;2022-08-21T17:20:46;2.88;;;1.10;;
72939;SDS011;61094;51.154;13.570;2022-08-21T17:23:13;3.92;;;1.05;;
72939;SDS011;61094;51.154;13.570;2022-08-21T17:25:41;4.88;;;1.40;;
72939;SDS011;61094;51.154;13.570;2022-08-21T17:28:11;4.00;;;1.42;;
72939;SDS011;61094;51.154;13.570;2022-08-21T17:30:40;6.18;;;1.20;;
72939;SDS011;61094;51.154;13.570;2022-08-21T17:33:10;7.88;;;1.70;;
72939;SDS011;61094;51.154;13.570;2022-08-21T17:35:39;5.53;;;1.40;;
72939;SDS011;61094;51.154;13.570;2022-08-21T17:38:08;5.15;;;1.30;;
72939;SDS011;61094;51.154;13.570;2022-08-21T17:40:35;9.98;;;1.80;;
72939;SDS011;61094;51.154;13.570;2022-08-21T17:43:02;6.00;;;1.50;;
72939;SDS011;61094;51.154;13.570;2022-08-21T17:45:31;8.02;;;1.85;;
72939;SDS011;61094;51.154;13.570;2022-08-21T17:47:58;6.40;;;1.67;;
72939;SDS011;61094;51.154;13.570;2022-08-21T17:50:26;4.82;;;1.60;;
72939;SDS011;61094;51.154;13.570;2022-08-21T17:52:53;4.88;;;1.48;;
72939;SDS011;61094;51.154;13.570;2022-08-21T17:55:20;6.90;;;1.85;;
72939;SDS011;61094;51.154;13.570;2022-08-21T17:57:47;5.35;;;1.92;;
72939;SDS011;61094;51.154;13.570;2022-08-21T18:00:17;5.93;;;1.98;;
72939;SDS011;61094;51.154;13.570;2022-08-21T18:02:44;9.27;;;2.00;;
72939;SDS011;61094;51.154;13.570;2022-08-21T18:05:15;5.47;;;1.52;;
72939;SDS011;61094;51.154;13.570;2022-08-21T18:07:43;7.20;;;1.70;;
72939;SDS011;61094;51.154;13.570;2022-08-21T18:10:10;7.25;;;1.67;;
72939;SDS011;61094;51.154;13.570;2022-08-21T18:12:38;5.75;;;1.45;;
72939;SDS011;61094;51.154;13.570;2022-08-21T18:17:34;6.50;;;1.65;;
72939;SDS011;61094;51.154;13.570;2022-08-21T18:20:01;7.20;;;1.75;;
72939;SDS011;61094;51.154;13.570;2022-08-21T18:22:30;4.20;;;1.70;;
72939;SDS011;61094;51.154;13.570;2022-08-21T18:24:58;6.10;;;1.55;;
72939;SDS011;61094;51.154;13.570;2022-08-21T18:27:25;8.32;;;1.90;;
72939;SDS011;61094;51.154;13.570;2022-08-21T18:29:53;4.95;;;1.83;;
72939;SDS011;61094;51.154;13.570;2022-08-21T18:32:22;8.50;;;2.30;;
72939;SDS011;61094;51.154;13.570;2022-08-21T18:37:19;5.28;;;2.50;;
72939;SDS011;61094;51.154;13.570;2022-08-21T18:39:46;5.75;;;2.20;;
72939;SDS011;61094;51.154;13.570;2022-08-21T18:42:14;9.57;;;3.05;;